sensor_id;sensor_type;location;lat;lon;timestamp;pressure;altitude;pressure_sealevel;temperature;humidity
34205;BME280;20471;49.680;20.074;2023-03-04T00:00:31;97165.63;;;-1.27;67.99
34205;BME280;20471;49.680;20.074;2023-03-04T00:03:19;97156.26;;;-1.29;67.92
34205;BME280;20471;49.680;20.074;2023-03-04T00:05:47;97160.16;;;-1.29;67.95
34205;BME280;20471;49.680;20.074;2023-03-04T00:08:14;97159.93;;;-1.29;67.94
34205;BME280;20471;49.680;20.074;2023-03-04T00:10:42;97155.53;;;-1.31;67.89
34205;BME280;20471;49.680;20.074;2023-03-04T00:13:10;97148.90;;;-1.33;67.87
34205;BME280;20471;49.680;20.074;2023-03-04T00:15:39;97145.76;;;-1.36;67.97
34205;BME280;20471;49.680;20.074;2023-03-04T00:18:07;97144.27;;;-1.37;67.97
34205;BME280;20471;49.680;20.074;2023-03-04T00:20:35;97139.42;;;-1.38;67.94
34205;BME280;20471;49.680;20.074;2023-03-04T00:23:03;97134.52;;;-1.38;68.08
34205;BME280;20471;49.680;20.074;2023-03-04T00:25:31;97135.48;;;-1.39;67.98
34205;BME280;20471;49.680;20.074;2023-03-04T00:27:59;97138.37;;;-1.40;67.94
34205;BME280;20471;49.680;20.074;2023-03-04T00:30:27;97137.84;;;-1.40;67.99
34205;BME280;20471;49.680;20.074;2023-03-04T00:32:55;97135.83;;;-1.41;67.89
34205;BME280;20471;49.680;20.074;2023-03-04T00:35:23;97131.13;;;-1.43;67.82
34205;BME280;20471;49.680;20.074;2023-03-04T00:37:51;97134.08;;;-1.43;67.96
34205;BME280;20471;49.680;20.074;2023-03-04T00:40:19;97131.58;;;-1.42;68.16
34205;BME280;20471;49.680;20.074;2023-03-04T00:42:47;97130.42;;;-1.44;68.09
34205;BME280;20471;49.680;20.074;2023-03-04T00:45:15;97129.20;;;-1.45;68.22
34205;BME280;20471;49.680;20.074;2023-03-04T00:47:43;97128.05;;;-1.46;68.15
34205;BME280;20471;49.680;20.074;2023-03-04T00:50:11;97125.05;;;-1.52;68.12
34205;BME280;20471;49.680;20.074;2023-03-04T00:52:39;97126.99;;;-1.63;68.07
34205;BME280;20471;49.680;20.074;2023-03-04T00:55:07;97124.59;;;-1.73;68.11
34205;BME280;20471;49.680;20.074;2023-03-04T00:57:35;97122.33;;;-1.82;68.22
34205;BME280;20471;49.680;20.074;2023-03-04T01:00:04;97116.21;;;-1.84;68.45
34205;BME280;20471;49.680;20.074;2023-03-04T01:02:32;97114.31;;;-1.86;68.48
34205;BME280;20471;49.680;20.074;2023-03-04T01:05:00;97106.65;;;-1.90;68.43
34205;BME280;20471;49.680;20.074;2023-03-04T01:07:28;97103.46;;;-1.93;68.42
34205;BME280;20471;49.680;20.074;2023-03-04T01:09:56;97098.84;;;-2.00;68.38
34205;BME280;20471;49.680;20.074;2023-03-04T01:12:24;97094.06;;;-2.09;68.40
34205;BME280;20471;49.680;20.074;2023-03-04T01:14:52;97094.42;;;-2.13;68.56
34205;BME280;20471;49.680;20.074;2023-03-04T01:17:20;97091.37;;;-2.15;68.64
34205;BME280;20471;49.680;20.074;2023-03-04T01:19:48;97090.45;;;-2.14;68.79
34205;BME280;20471;49.680;20.074;2023-03-04T01:22:16;97091.22;;;-2.15;68.85
34205;BME280;20471;49.680;20.074;2023-03-04T01:24:44;97090.72;;;-2.15;68.82
34205;BME280;20471;49.680;20.074;2023-03-04T01:27:13;97088.74;;;-2.17;68.89
34205;BME280;20471;49.680;20.074;2023-03-04T01:29:41;97087.27;;;-2.18;68.97
34205;BME280;20471;49.680;20.074;2023-03-04T01:32:09;97080.45;;;-2.18;68.93
34205;BME280;20471;49.680;20.074;2023-03-04T01:34:37;97074.69;;;-2.21;68.91
34205;BME280;20471;49.680;20.074;2023-03-04T01:37:05;97070.81;;;-2.27;68.83
34205;BME280;20471;49.680;20.074;2023-03-04T01:39:33;97065.54;;;-2.32;68.96
34205;BME280;20471;49.680;20.074;2023-03-04T01:42:01;97064.37;;;-2.33;69.07
34205;BME280;20471;49.680;20.074;2023-03-04T01:44:29;97055.96;;;-2.34;69.18
34205;BME280;20471;49.680;20.074;2023-03-04T01:46:56;97051.14;;;-2.37;69.21
34205;BME280;20471;49.680;20.074;2023-03-04T01:49:24;97044.45;;;-2.39;69.27
34205;BME280;20471;49.680;20.074;2023-03-04T01:51:53;97045.64;;;-2.42;69.27
34205;BME280;20471;49.680;20.074;2023-03-04T01:54:21;97047.13;;;-2.43;69.39
34205;BME280;20471;49.680;20.074;2023-03-04T01:56:50;97040.39;;;-2.42;69.50
34205;BME280;20471;49.680;20.074;2023-03-04T02:01:48;97034.73;;;-2.42;69.48
34205;BME280;20471;49.680;20.074;2023-03-04T02:04:17;97033.54;;;-2.43;69.51
34205;BME280;20471;49.680;20.074;2023-03-04T02:06:46;97031.45;;;-2.45;69.66
34205;BME280;20471;49.680;20.074;2023-03-04T02:09:18;97028.13;;;-2.47;69.78
34205;BME280;20471;49.680;20.074;2023-03-04T02:11:46;97023.92;;;-2.50;69.86
34205;BME280;20471;49.680;20.074;2023-03-04T02:14:15;97020.95;;;-2.50;69.90
34205;BME280;20471;49.680;20.074;2023-03-04T02:16:43;97015.64;;;-2.49;69.99
34205;BME280;20471;49.680;20.074;2023-03-04T02:21:58;97010.89;;;-2.49;70.03
34205;BME280;20471;49.680;20.074;2023-03-04T02:24:28;97012.97;;;-2.51;69.99
34205;BME280;20471;49.680;20.074;2023-03-04T02:26:58;97008.81;;;-2.56;70.04
34205;BME280;20471;49.680;20.074;2023-03-04T02:29:26;97010.98;;;-2.61;70.13
34205;BME280;20471;49.680;20.074;2023-03-04T02:31:55;97004.15;;;-2.63;70.29
34205;BME280;20471;49.680;20.074;2023-03-04T02:34:30;96997.53;;;-2.64;70.36
34205;BME280;20471;49.680;20.074;2023-03-04T02:36:58;96998.45;;;-2.60;70.36
34205;BME280;20471;49.680;20.074;2023-03-04T02:39:31;96994.34;;;-2.58;70.33
34205;BME280;20471;49.680;20.074;2023-03-04T02:42:00;96986.37;;;-2.57;70.43
34205;BME280;20471;49.680;20.074;2023-03-04T02:44:29;96982.44;;;-2.57;70.28
34205;BME280;20471;49.680;20.074;2023-03-04T02:46:57;96980.64;;;-2.56;70.31
34205;BME280;20471;49.680;20.074;2023-03-04T02:49:26;96983.33;;;-2.57;70.25
34205;BME280;20471;49.680;20.074;2023-03-04T02:52:00;96977.57;;;-2.57;70.39
34205;BME280;20471;49.680;20.074;2023-03-04T02:54:28;96977.38;;;-2.61;70.43
34205;BME280;20471;49.680;20.074;2023-03-04T02:56:58;96975.34;;;-2.64;70.52
34205;BME280;20471;49.680;20.074;2023-03-04T02:59:26;96969.38;;;-2.68;70.59
34205;BME280;20471;49.680;20.074;2023-03-04T03:01:54;96970.65;;;-2.72;70.71
34205;BME280;20471;49.680;20.074;2023-03-04T03:04:22;96969.52;;;-2.73;70.74
34205;BME280;20471;49.680;20.074;2023-03-04T03:06:51;96967.06;;;-2.73;70.77
34205;BME280;20471;49.680;20.074;2023-03-04T03:09:19;96974.31;;;-2.74;70.82
34205;BME280;20471;49.680;20.074;2023-03-04T03:11:46;96971.68;;;-2.72;71.00
34205;BME280;20471;49.680;20.074;2023-03-04T03:14:15;96968.68;;;-2.70;70.96
34205;BME280;20471;49.680;20.074;2023-03-04T03:16:43;96968.94;;;-2.69;70.82
34205;BME280;20471;49.680;20.074;2023-03-04T03:19:11;96962.92;;;-2.68;70.69
34205;BME280;20471;49.680;20.074;2023-03-04T03:21:39;96961.68;;;-2.68;70.79
34205;BME280;20471;49.680;20.074;2023-03-04T03:24:07;96959.13;;;-2.67;70.85
34205;BME280;20471;49.680;20.074;2023-03-04T03:26:35;96955.27;;;-2.66;70.74
34205;BME280;20471;49.680;20.074;2023-03-04T03:29:05;96949.45;;;-2.66;70.83
34205;BME280;20471;49.680;20.074;2023-03-04T03:31:33;96945.91;;;-2.67;70.69
34205;BME280;20471;49.680;20.074;2023-03-04T03:34:01;96947.58;;;-2.66;70.69
34205;BME280;20471;49.680;20.074;2023-03-04T03:36:29;96945.88;;;-2.69;70.67
34205;BME280;20471;49.680;20.074;2023-03-04T03:38:57;96943.09;;;-2.75;70.64
34205;BME280;20471;49.680;20.074;2023-03-04T03:41:25;96940.80;;;-2.79;70.73
34205;BME280;20471;49.680;20.074;2023-03-04T03:43:53;96938.66;;;-2.80;70.57
34205;BME280;20471;49.680;20.074;2023-03-04T03:46:21;96935.35;;;-2.82;70.58
34205;BME280;20471;49.680;20.074;2023-03-04T03:48:49;96932.73;;;-2.88;70.46
34205;BME280;20471;49.680;20.074;2023-03-04T03:51:17;96931.73;;;-2.95;70.57
34205;BME280;20471;49.680;20.074;2023-03-04T03:53:45;96926.67;;;-3.01;70.64
34205;BME280;20471;49.680;20.074;2023-03-04T03:56:13;96919.02;;;-3.04;70.59
34205;BME280;20471;49.680;20.074;2023-03-04T03:58:41;96922.32;;;-3.05;70.55
34205;BME280;20471;49.680;20.074;2023-03-04T04:01:09;96920.67;;;-3.07;70.66
34205;BME280;20471;49.680;20.074;2023-03-04T04:03:37;96918.08;;;-3.07;70.87
34205;BME280;20471;49.680;20.074;2023-03-04T04:06:05;96919.39;;;-3.10;70.79
34205;BME280;20471;49.680;20.074;2023-03-04T04:08:33;96916.29;;;-3.14;70.72
34205;BME280;20471;49.680;20.074;2023-03-04T04:11:01;96919.11;;;-3.20;70.79
34205;BME280;20471;49.680;20.074;2023-03-04T04:13:29;96919.02;;;-3.23;70.89
34205;BME280;20471;49.680;20.074;2023-03-04T04:15:57;96917.04;;;-3.25;70.99
34205;BME280;20471;49.680;20.074;2023-03-04T04:18:25;96913.52;;;-3.27;70.85
34205;BME280;20471;49.680;20.074;2023-03-04T04:20:53;96915.42;;;-3.29;70.93
34205;BME280;20471;49.680;20.074;2023-03-04T04:23:21;96914.89;;;-3.28;70.89
34205;BME280;20471;49.680;20.074;2023-03-04T04:25:49;96915.17;;;-3.28;70.70
34205;BME280;20471;49.680;20.074;2023-03-04T04:28:17;96912.92;;;-3.28;70.76
34205;BME280;20471;49.680;20.074;2023-03-04T04:30:45;96916.84;;;-3.29;70.90
34205;BME280;20471;49.680;20.074;2023-03-04T04:33:13;96914.90;;;-3.33;70.80
34205;BME280;20471;49.680;20.074;2023-03-04T04:35:41;96914.86;;;-3.36;70.80
34205;BME280;20471;49.680;20.074;2023-03-04T04:38:10;96912.41;;;-3.36;70.79
34205;BME280;20471;49.680;20.074;2023-03-04T04:40:38;96914.14;;;-3.38;70.65
34205;BME280;20471;49.680;20.074;2023-03-04T04:43:06;96919.92;;;-3.43;70.55
34205;BME280;20471;49.680;20.074;2023-03-04T04:45:34;96919.88;;;-3.47;70.66
34205;BME280;20471;49.680;20.074;2023-03-04T04:48:02;96914.08;;;-3.49;70.69
34205;BME280;20471;49.680;20.074;2023-03-04T04:50:30;96912.72;;;-3.53;70.49
34205;BME280;20471;49.680;20.074;2023-03-04T04:52:58;96913.45;;;-3.53;70.55
34205;BME280;20471;49.680;20.074;2023-03-04T04:55:26;96911.73;;;-3.54;70.45
34205;BME280;20471;49.680;20.074;2023-03-04T04:57:54;96908.20;;;-3.56;70.43
34205;BME280;20471;49.680;20.074;2023-03-04T05:00:22;96911.15;;;-3.57;70.52
34205;BME280;20471;49.680;20.074;2023-03-04T05:02:49;96912.91;;;-3.61;70.44
34205;BME280;20471;49.680;20.074;2023-03-04T05:05:17;96908.20;;;-3.69;70.23
34205;BME280;20471;49.680;20.074;2023-03-04T05:07:45;96907.61;;;-3.77;70.35
34205;BME280;20471;49.680;20.074;2023-03-04T05:10:14;96901.84;;;-3.83;70.51
34205;BME280;20471;49.680;20.074;2023-03-04T05:12:43;96896.36;;;-3.88;70.64
34205;BME280;20471;49.680;20.074;2023-03-04T05:15:11;96896.09;;;-3.89;70.80
34205;BME280;20471;49.680;20.074;2023-03-04T05:17:39;96890.48;;;-3.87;70.92
34205;BME280;20471;49.680;20.074;2023-03-04T05:20:07;96890.01;;;-3.86;70.91
34205;BME280;20471;49.680;20.074;2023-03-04T05:22:36;96890.50;;;-3.88;70.84
34205;BME280;20471;49.680;20.074;2023-03-04T05:25:04;96887.84;;;-3.90;70.92
34205;BME280;20471;49.680;20.074;2023-03-04T05:27:32;96888.63;;;-3.88;70.92
34205;BME280;20471;49.680;20.074;2023-03-04T05:30:00;96889.02;;;-3.87;70.87
34205;BME280;20471;49.680;20.074;2023-03-04T05:32:28;96887.11;;;-3.87;70.72
34205;BME280;20471;49.680;20.074;2023-03-04T05:34:56;96886.46;;;-3.88;70.58
34205;BME280;20471;49.680;20.074;2023-03-04T05:37:24;96887.97;;;-3.91;70.62
34205;BME280;20471;49.680;20.074;2023-03-04T05:39:52;96885.13;;;-3.93;70.68
34205;BME280;20471;49.680;20.074;2023-03-04T05:42:20;96887.40;;;-3.96;70.70
34205;BME280;20471;49.680;20.074;2023-03-04T05:44:48;96881.13;;;-3.99;70.66
34205;BME280;20471;49.680;20.074;2023-03-04T05:47:16;96881.90;;;-4.00;70.57
34205;BME280;20471;49.680;20.074;2023-03-04T05:49:44;96882.82;;;-4.01;70.72
34205;BME280;20471;49.680;20.074;2023-03-04T05:52:12;96879.59;;;-4.02;70.67
34205;BME280;20471;49.680;20.074;2023-03-04T05:54:40;96882.73;;;-4.02;70.70
34205;BME280;20471;49.680;20.074;2023-03-04T05:57:08;96881.45;;;-4.01;70.74
34205;BME280;20471;49.680;20.074;2023-03-04T05:59:35;96878.71;;;-4.00;70.71
34205;BME280;20471;49.680;20.074;2023-03-04T06:02:03;96881.45;;;-4.01;70.71
34205;BME280;20471;49.680;20.074;2023-03-04T06:04:31;96878.73;;;-4.02;70.72
34205;BME280;20471;49.680;20.074;2023-03-04T06:07:00;96875.65;;;-3.99;70.79
34205;BME280;20471;49.680;20.074;2023-03-04T06:09:28;96876.73;;;-3.97;70.81
34205;BME280;20471;49.680;20.074;2023-03-04T06:11:56;96878.56;;;-3.96;70.85
34205;BME280;20471;49.680;20.074;2023-03-04T06:14:24;96875.73;;;-3.91;70.89
34205;BME280;20471;49.680;20.074;2023-03-04T06:19:45;96875.92;;;-3.84;70.95
34205;BME280;20471;49.680;20.074;2023-03-04T06:22:13;96876.33;;;-3.83;70.95
34205;BME280;20471;49.680;20.074;2023-03-04T06:24:41;96877.65;;;-3.80;70.97
34205;BME280;20471;49.680;20.074;2023-03-04T06:27:09;96874.96;;;-3.77;71.03
34205;BME280;20471;49.680;20.074;2023-03-04T06:29:37;96876.69;;;-3.75;71.17
34205;BME280;20471;49.680;20.074;2023-03-04T06:32:05;96874.95;;;-3.72;71.26
34205;BME280;20471;49.680;20.074;2023-03-04T06:34:33;96873.87;;;-3.67;71.28
34205;BME280;20471;49.680;20.074;2023-03-04T06:37:01;96876.05;;;-3.62;71.23
34205;BME280;20471;49.680;20.074;2023-03-04T06:39:29;96874.49;;;-3.56;71.33
34205;BME280;20471;49.680;20.074;2023-03-04T06:41:58;96869.20;;;-3.52;71.34
34205;BME280;20471;49.680;20.074;2023-03-04T06:44:26;96869.16;;;-3.48;71.34
34205;BME280;20471;49.680;20.074;2023-03-04T06:46:54;96868.65;;;-3.42;71.46
34205;BME280;20471;49.680;20.074;2023-03-04T06:49:22;96869.92;;;-3.35;71.47
34205;BME280;20471;49.680;20.074;2023-03-04T06:51:50;96869.34;;;-3.31;71.50
34205;BME280;20471;49.680;20.074;2023-03-04T06:54:18;96866.67;;;-3.27;71.41
34205;BME280;20471;49.680;20.074;2023-03-04T06:56:46;96859.72;;;-3.23;71.42
34205;BME280;20471;49.680;20.074;2023-03-04T06:59:14;96859.09;;;-3.20;71.38
34205;BME280;20471;49.680;20.074;2023-03-04T07:01:42;96850.86;;;-3.15;71.29
34205;BME280;20471;49.680;20.074;2023-03-04T07:04:11;96849.80;;;-3.06;71.34
34205;BME280;20471;49.680;20.074;2023-03-04T07:06:40;96845.20;;;-2.98;71.42
34205;BME280;20471;49.680;20.074;2023-03-04T07:09:08;96842.30;;;-2.91;71.45
34205;BME280;20471;49.680;20.074;2023-03-04T07:11:36;96839.73;;;-2.82;71.43
34205;BME280;20471;49.680;20.074;2023-03-04T07:14:04;96828.59;;;-2.74;71.37
34205;BME280;20471;49.680;20.074;2023-03-04T07:16:32;96830.64;;;-2.65;71.35
34205;BME280;20471;49.680;20.074;2023-03-04T07:19:00;96836.54;;;-2.56;71.38
34205;BME280;20471;49.680;20.074;2023-03-04T07:21:28;96830.98;;;-2.47;71.34
34205;BME280;20471;49.680;20.074;2023-03-04T07:23:56;96826.94;;;-2.38;71.17
34205;BME280;20471;49.680;20.074;2023-03-04T07:26:24;96823.33;;;-2.28;71.30
34205;BME280;20471;49.680;20.074;2023-03-04T07:28:52;96825.27;;;-2.16;71.20
34205;BME280;20471;49.680;20.074;2023-03-04T07:31:24;96829.92;;;-2.00;70.91
34205;BME280;20471;49.680;20.074;2023-03-04T07:33:54;96826.86;;;-1.83;70.74
34205;BME280;20471;49.680;20.074;2023-03-04T07:36:23;96831.58;;;-1.64;70.40
34205;BME280;20471;49.680;20.074;2023-03-04T07:38:51;96829.13;;;-1.48;70.26
34205;BME280;20471;49.680;20.074;2023-03-04T07:41:20;96827.33;;;-1.30;70.21
34205;BME280;20471;49.680;20.074;2023-03-04T07:43:49;96826.22;;;-1.10;70.21
34205;BME280;20471;49.680;20.074;2023-03-04T07:46:17;96825.45;;;-0.89;70.31
34205;BME280;20471;49.680;20.074;2023-03-04T07:48:45;96822.58;;;-0.70;70.05
34205;BME280;20471;49.680;20.074;2023-03-04T07:51:20;96811.58;;;-0.54;69.44
34205;BME280;20471;49.680;20.074;2023-03-04T07:53:50;96812.34;;;-0.35;69.15
34205;BME280;20471;49.680;20.074;2023-03-04T07:56:19;96809.42;;;-0.16;68.89
34205;BME280;20471;49.680;20.074;2023-03-04T07:58:49;96807.12;;;0.06;68.66
34205;BME280;20471;49.680;20.074;2023-03-04T08:01:20;96799.72;;;0.31;68.39
34205;BME280;20471;49.680;20.074;2023-03-04T08:03:49;96794.51;;;0.63;68.20
34205;BME280;20471;49.680;20.074;2023-03-04T08:06:17;96792.79;;;0.95;67.39
34205;BME280;20471;49.680;20.074;2023-03-04T08:08:46;96796.27;;;1.26;66.88
34205;BME280;20471;49.680;20.074;2023-03-04T08:11:17;96792.35;;;1.66;66.66
34205;BME280;20471;49.680;20.074;2023-03-04T08:13:46;96786.47;;;2.09;66.10
34205;BME280;20471;49.680;20.074;2023-03-04T08:16:16;96783.11;;;2.52;65.61
34205;BME280;20471;49.680;20.074;2023-03-04T08:18:44;96782.86;;;2.95;65.02
34205;BME280;20471;49.680;20.074;2023-03-04T08:21:13;96780.36;;;3.40;64.50
34205;BME280;20471;49.680;20.074;2023-03-04T08:23:44;96783.98;;;3.81;63.91
34205;BME280;20471;49.680;20.074;2023-03-04T08:26:14;96782.13;;;4.17;63.49
34205;BME280;20471;49.680;20.074;2023-03-04T08:28:42;96777.95;;;4.52;62.89
34205;BME280;20471;49.680;20.074;2023-03-04T08:31:11;96775.18;;;4.79;62.50
34205;BME280;20471;49.680;20.074;2023-03-04T08:33:40;96772.19;;;5.01;62.27
34205;BME280;20471;49.680;20.074;2023-03-04T08:36:08;96774.45;;;5.24;61.93
34205;BME280;20471;49.680;20.074;2023-03-04T08:38:37;96776.84;;;5.30;61.32
34205;BME280;20471;49.680;20.074;2023-03-04T08:41:05;96773.45;;;5.39;60.77
34205;BME280;20471;49.680;20.074;2023-03-04T08:43:33;96771.14;;;5.61;60.52
34205;BME280;20471;49.680;20.074;2023-03-04T08:46:01;96776.20;;;5.87;59.62
34205;BME280;20471;49.680;20.074;2023-03-04T08:48:30;96776.73;;;6.05;59.29
34205;BME280;20471;49.680;20.074;2023-03-04T08:50:58;96773.11;;;6.25;58.96
34205;BME280;20471;49.680;20.074;2023-03-04T08:53:26;96776.39;;;6.42;58.67
34205;BME280;20471;49.680;20.074;2023-03-04T08:55:54;96769.36;;;6.61;58.42
34205;BME280;20471;49.680;20.074;2023-03-04T08:58:22;96759.88;;;6.79;58.15
34205;BME280;20471;49.680;20.074;2023-03-04T09:00:50;96763.05;;;7.00;57.70
34205;BME280;20471;49.680;20.074;2023-03-04T09:03:18;96764.47;;;7.20;57.48
34205;BME280;20471;49.680;20.074;2023-03-04T09:05:46;96762.58;;;7.36;57.13
34205;BME280;20471;49.680;20.074;2023-03-04T09:08:15;96768.48;;;7.40;56.70
34205;BME280;20471;49.680;20.074;2023-03-04T09:10:44;96771.23;;;7.56;56.64
34205;BME280;20471;49.680;20.074;2023-03-04T09:13:12;96771.97;;;7.76;56.23
34205;BME280;20471;49.680;20.074;2023-03-04T09:15:45;96766.79;;;7.84;55.20
34205;BME280;20471;49.680;20.074;2023-03-04T09:18:13;96763.58;;;7.73;55.24
34205;BME280;20471;49.680;20.074;2023-03-04T09:20:42;96767.39;;;7.92;55.46
34205;BME280;20471;49.680;20.074;2023-03-04T09:23:10;96769.30;;;8.19;55.37
34205;BME280;20471;49.680;20.074;2023-03-04T09:25:38;96773.26;;;8.31;54.42
34205;BME280;20471;49.680;20.074;2023-03-04T09:28:06;96773.55;;;8.28;54.43
34205;BME280;20471;49.680;20.074;2023-03-04T09:30:34;96787.27;;;8.33;54.55
34205;BME280;20471;49.680;20.074;2023-03-04T09:33:02;96791.55;;;8.20;53.26
34205;BME280;20471;49.680;20.074;2023-03-04T09:35:30;96796.48;;;7.60;52.56
34205;BME280;20471;49.680;20.074;2023-03-04T09:37:58;96800.23;;;6.90;52.37
34205;BME280;20471;49.680;20.074;2023-03-04T09:40:28;96815.08;;;6.18;52.49
34205;BME280;20471;49.680;20.074;2023-03-04T09:43:01;96825.80;;;5.66;53.27
34205;BME280;20471;49.680;20.074;2023-03-04T09:45:34;96835.43;;;5.22;53.58
34205;BME280;20471;49.680;20.074;2023-03-04T09:48:04;96838.85;;;4.77;54.27
34205;BME280;20471;49.680;20.074;2023-03-04T09:50:33;96845.14;;;4.56;54.86
34205;BME280;20471;49.680;20.074;2023-03-04T09:55:38;96843.94;;;4.91;55.41
34205;BME280;20471;49.680;20.074;2023-03-04T10:03:32;96857.77;;;4.56;55.21
34205;BME280;20471;49.680;20.074;2023-03-04T10:06:12;96859.27;;;4.39;55.69
34205;BME280;20471;49.680;20.074;2023-03-04T10:11:26;96864.20;;;4.90;56.54
34205;BME280;20471;49.680;20.074;2023-03-04T10:16:24;96860.87;;;5.48;55.84
34205;BME280;20471;49.680;20.074;2023-03-04T10:18:55;96861.33;;;5.44;55.70
34205;BME280;20471;49.680;20.074;2023-03-04T10:21:32;96861.54;;;5.50;55.47
34205;BME280;20471;49.680;20.074;2023-03-04T10:24:12;96856.58;;;5.33;54.65
34205;BME280;20471;49.680;20.074;2023-03-04T10:26:44;96858.30;;;5.07;55.16
34205;BME280;20471;49.680;20.074;2023-03-04T10:29:17;96866.69;;;4.94;55.88
34205;BME280;20471;49.680;20.074;2023-03-04T10:31:45;96874.25;;;5.01;56.04
34205;BME280;20471;49.680;20.074;2023-03-04T10:34:14;96874.73;;;5.11;56.24
34205;BME280;20471;49.680;20.074;2023-03-04T10:36:51;96868.59;;;5.10;55.91
34205;BME280;20471;49.680;20.074;2023-03-04T10:39:27;96861.42;;;5.13;55.35
34205;BME280;20471;49.680;20.074;2023-03-04T10:42:00;96858.66;;;5.17;55.25
34205;BME280;20471;49.680;20.074;2023-03-04T10:44:28;96856.52;;;5.14;54.93
34205;BME280;20471;49.680;20.074;2023-03-04T10:46:57;96861.48;;;5.02;54.66
34205;BME280;20471;49.680;20.074;2023-03-04T10:49:26;96865.16;;;4.66;54.30
34205;BME280;20471;49.680;20.074;2023-03-04T10:52:02;96864.23;;;4.71;55.33
34205;BME280;20471;49.680;20.074;2023-03-04T10:54:34;96855.23;;;5.10;55.15
34205;BME280;20471;49.680;20.074;2023-03-04T10:57:14;96851.52;;;4.96;54.72
34205;BME280;20471;49.680;20.074;2023-03-04T10:59:46;96848.56;;;4.98;54.90
34205;BME280;20471;49.680;20.074;2023-03-04T11:05:16;96844.63;;;5.46;54.09
34205;BME280;20471;49.680;20.074;2023-03-04T11:07:51;96848.21;;;5.40;53.41
34205;BME280;20471;49.680;20.074;2023-03-04T11:13:00;96852.27;;;6.11;53.59
34205;BME280;20471;49.680;20.074;2023-03-04T11:15:29;96854.31;;;6.09;51.71
34205;BME280;20471;49.680;20.074;2023-03-04T11:18:03;96861.27;;;5.85;52.42
34205;BME280;20471;49.680;20.074;2023-03-04T11:20:33;96860.66;;;5.67;52.16
34205;BME280;20471;49.680;20.074;2023-03-04T11:23:05;96856.79;;;5.57;52.41
34205;BME280;20471;49.680;20.074;2023-03-04T11:25:37;96855.08;;;5.50;52.61
34205;BME280;20471;49.680;20.074;2023-03-04T11:28:26;96853.39;;;5.45;52.66
34205;BME280;20471;49.680;20.074;2023-03-04T11:33:52;96859.52;;;4.79;52.91
34205;BME280;20471;49.680;20.074;2023-03-04T11:36:34;96864.12;;;4.51;52.85
34205;BME280;20471;49.680;20.074;2023-03-04T11:39:13;96869.63;;;4.18;53.28
34205;BME280;20471;49.680;20.074;2023-03-04T11:41:47;96865.73;;;4.03;53.64
34205;BME280;20471;49.680;20.074;2023-03-04T11:44:18;96862.98;;;3.89;53.87
34205;BME280;20471;49.680;20.074;2023-03-04T11:57:33;96856.92;;;4.07;54.74
34205;BME280;20471;49.680;20.074;2023-03-04T12:02:50;96846.45;;;3.75;54.73
34205;BME280;20471;49.680;20.074;2023-03-04T12:10:44;96853.67;;;3.31;55.25
34205;BME280;20471;49.680;20.074;2023-03-04T12:26:09;96843.66;;;3.61;55.41
34205;BME280;20471;49.680;20.074;2023-03-04T12:36:37;96841.16;;;3.44;55.72
34205;BME280;20471;49.680;20.074;2023-03-04T12:44:16;96829.40;;;3.18;55.83
34205;BME280;20471;49.680;20.074;2023-03-04T12:46:49;96832.94;;;3.14;56.12
34205;BME280;20471;49.680;20.074;2023-03-04T12:49:34;96828.56;;;3.07;55.99
34205;BME280;20471;49.680;20.074;2023-03-04T12:54:43;96824.27;;;3.04;56.38
34205;BME280;20471;49.680;20.074;2023-03-04T12:57:13;96827.21;;;3.03;56.36
34205;BME280;20471;49.680;20.074;2023-03-04T13:02:52;96820.88;;;3.04;56.56
34205;BME280;20471;49.680;20.074;2023-03-04T13:05:23;96819.66;;;3.06;56.56
34205;BME280;20471;49.680;20.074;2023-03-04T13:10:30;96815.05;;;3.01;56.57
34205;BME280;20471;49.680;20.074;2023-03-04T13:12:59;96809.33;;;2.94;56.62
34205;BME280;20471;49.680;20.074;2023-03-04T13:15:29;96814.54;;;2.89;56.86
34205;BME280;20471;49.680;20.074;2023-03-04T13:18:01;96807.86;;;2.85;57.00
34205;BME280;20471;49.680;20.074;2023-03-04T13:38:23;96786.49;;;2.81;57.96
34205;BME280;20471;49.680;20.074;2023-03-04T13:51:17;96786.27;;;2.86;58.21
34205;BME280;20471;49.680;20.074;2023-03-04T13:56:19;96785.54;;;2.86;58.34
34205;BME280;20471;49.680;20.074;2023-03-04T13:58:49;96785.60;;;2.87;58.51
34205;BME280;20471;49.680;20.074;2023-03-04T14:01:23;96781.52;;;2.88;58.34
34205;BME280;20471;49.680;20.074;2023-03-04T14:03:51;96779.27;;;2.88;58.45
34205;BME280;20471;49.680;20.074;2023-03-04T14:06:24;96779.57;;;2.90;58.60
34205;BME280;20471;49.680;20.074;2023-03-04T14:08:52;96783.27;;;2.93;58.45
34205;BME280;20471;49.680;20.074;2023-03-04T14:11:39;96784.54;;;2.93;58.33
34205;BME280;20471;49.680;20.074;2023-03-04T14:14:15;96778.77;;;2.94;58.37
34205;BME280;20471;49.680;20.074;2023-03-04T14:16:50;96777.06;;;2.95;58.39
34205;BME280;20471;49.680;20.074;2023-03-04T14:19:22;96775.61;;;2.92;58.38
34205;BME280;20471;49.680;20.074;2023-03-04T14:21:52;96772.55;;;2.87;58.36
34205;BME280;20471;49.680;20.074;2023-03-04T14:24:20;96767.09;;;2.82;58.51
34205;BME280;20471;49.680;20.074;2023-03-04T14:26:49;96766.73;;;2.84;58.61
34205;BME280;20471;49.680;20.074;2023-03-04T14:29:21;96763.29;;;2.83;58.74
34205;BME280;20471;49.680;20.074;2023-03-04T14:31:50;96763.00;;;2.81;58.79
34205;BME280;20471;49.680;20.074;2023-03-04T14:34:23;96761.09;;;2.82;58.74
34205;BME280;20471;49.680;20.074;2023-03-04T14:36:52;96761.85;;;2.79;58.62
34205;BME280;20471;49.680;20.074;2023-03-04T14:39:21;96759.88;;;2.73;58.81
34205;BME280;20471;49.680;20.074;2023-03-04T14:41:51;96760.58;;;2.72;58.91
34205;BME280;20471;49.680;20.074;2023-03-04T14:44:26;96757.44;;;2.65;58.99
34205;BME280;20471;49.680;20.074;2023-03-04T14:46:57;96749.98;;;2.62;59.05
34205;BME280;20471;49.680;20.074;2023-03-04T14:49:27;96755.69;;;2.63;59.26
34205;BME280;20471;49.680;20.074;2023-03-04T14:51:55;96752.29;;;2.67;59.46
34205;BME280;20471;49.680;20.074;2023-03-04T14:56:55;96748.06;;;2.71;59.51
34205;BME280;20471;49.680;20.074;2023-03-04T14:59:31;96747.32;;;2.73;59.50
34205;BME280;20471;49.680;20.074;2023-03-04T15:02:37;96749.23;;;2.73;59.53